sensor_id;sensor_type;location;lat;lon;timestamp;pressure;altitude;pressure_sealevel;temperature;humidity
16806;BME280;8520;50.102;20.010;2023-07-13T00:00:05;97905.38;;;22.99;80.73
16806;BME280;8520;50.102;20.010;2023-07-13T00:02:40;97896.66;;;23.72;78.16
16806;BME280;8520;50.102;20.010;2023-07-13T00:05:08;97891.03;;;23.29;79.36
16806;BME280;8520;50.102;20.010;2023-07-13T00:07:37;97904.25;;;23.44;78.85
16806;BME280;8520;50.102;20.010;2023-07-13T00:10:08;97911.97;;;23.44;79.04
16806;BME280;8520;50.102;20.010;2023-07-13T00:12:38;97929.13;;;23.55;78.32
16806;BME280;8520;50.102;20.010;2023-07-13T00:15:13;97935.72;;;23.33;80.28
16806;BME280;8520;50.102;20.010;2023-07-13T00:17:43;97927.44;;;23.10;81.22
16806;BME280;8520;50.102;20.010;2023-07-13T00:20:12;97924.84;;;22.79;82.87
16806;BME280;8520;50.102;20.010;2023-07-13T00:22:40;97913.28;;;23.18;80.88
16806;BME280;8520;50.102;20.010;2023-07-13T00:25:10;97916.47;;;23.81;78.93
16806;BME280;8520;50.102;20.010;2023-07-13T00:27:42;97911.13;;;23.33;80.64
16806;BME280;8520;50.102;20.010;2023-07-13T00:30:11;97911.28;;;23.10;81.61
16806;BME280;8520;50.102;20.010;2023-07-13T00:32:39;97926.09;;;22.53;84.56
16806;BME280;8520;50.102;20.010;2023-07-13T00:35:08;97922.78;;;23.05;84.21
16806;BME280;8520;50.102;20.010;2023-07-13T00:37:36;97930.47;;;22.39;86.92
16806;BME280;8520;50.102;20.010;2023-07-13T00:40:06;97921.03;;;22.12;88.31
16806;BME280;8520;50.102;20.010;2023-07-13T00:42:36;97912.25;;;22.48;87.72
16806;BME280;8520;50.102;20.010;2023-07-13T00:46:02;97925.59;;;22.40;87.57
16806;BME280;8520;50.102;20.010;2023-07-13T00:47:56;97939.78;;;22.17;89.71
16806;BME280;8520;50.102;20.010;2023-07-13T00:50:26;97949.63;;;21.62;92.68
16806;BME280;8520;50.102;20.010;2023-07-13T00:52:54;97965.34;;;21.58;94.32
16806;BME280;8520;50.102;20.010;2023-07-13T00:55:24;97974.72;;;21.53;94.70
16806;BME280;8520;50.102;20.010;2023-07-13T00:57:55;97955.63;;;21.21;97.31
16806;BME280;8520;50.102;20.010;2023-07-13T01:00:25;97946.66;;;21.37;96.74
16806;BME280;8520;50.102;20.010;2023-07-13T01:02:55;97953.19;;;21.48;95.99
16806;BME280;8520;50.102;20.010;2023-07-13T01:05:25;97948.66;;;21.83;94.33
16806;BME280;8520;50.102;20.010;2023-07-13T01:07:54;97953.94;;;21.48;96.50
16806;BME280;8520;50.102;20.010;2023-07-13T01:10:23;97952.38;;;22.01;94.34
16806;BME280;8520;50.102;20.010;2023-07-13T01:12:53;97936.69;;;22.30;92.49
16806;BME280;8520;50.102;20.010;2023-07-13T01:15:37;97939.94;;;22.19;92.80
16806;BME280;8520;50.102;20.010;2023-07-13T01:18:07;97934.25;;;22.34;92.37
16806;BME280;8520;50.102;20.010;2023-07-13T01:20:37;97937.78;;;21.94;93.69
16806;BME280;8520;50.102;20.010;2023-07-13T01:23:09;97920.75;;;21.85;93.76
16806;BME280;8520;50.102;20.010;2023-07-13T01:25:37;97926.56;;;22.35;89.89
16806;BME280;8520;50.102;20.010;2023-07-13T01:28:07;97926.34;;;22.00;91.06
16806;BME280;8520;50.102;20.010;2023-07-13T01:30:38;97922.88;;;22.65;87.55
16806;BME280;8520;50.102;20.010;2023-07-13T01:33:08;97931.97;;;22.00;87.29
16806;BME280;8520;50.102;20.010;2023-07-13T01:35:36;97924.28;;;22.81;86.49
16806;BME280;8520;50.102;20.010;2023-07-13T01:38:06;97918.09;;;23.50;84.51
16806;BME280;8520;50.102;20.010;2023-07-13T01:40:35;97902.59;;;23.58;84.34
16806;BME280;8520;50.102;20.010;2023-07-13T01:43:05;97898.81;;;23.98;83.16
16806;BME280;8520;50.102;20.010;2023-07-13T01:45:33;97895.38;;;24.34;81.83
16806;BME280;8520;50.102;20.010;2023-07-13T01:48:02;97890.09;;;24.48;81.42
16806;BME280;8520;50.102;20.010;2023-07-13T01:50:30;97892.63;;;24.27;82.18
16806;BME280;8520;50.102;20.010;2023-07-13T01:52:59;97905.44;;;23.93;84.59
16806;BME280;8520;50.102;20.010;2023-07-13T01:55:29;97893.41;;;23.58;86.58
16806;BME280;8520;50.102;20.010;2023-07-13T01:57:57;97875.41;;;24.05;84.78
16806;BME280;8520;50.102;20.010;2023-07-13T02:00:26;97869.06;;;24.32;83.37
16806;BME280;8520;50.102;20.010;2023-07-13T02:02:56;97872.16;;;24.26;83.52
16806;BME280;8520;50.102;20.010;2023-07-13T02:05:24;97858.91;;;24.19;83.89
16806;BME280;8520;50.102;20.010;2023-07-13T02:07:53;97851.72;;;24.35;82.91
16806;BME280;8520;50.102;20.010;2023-07-13T02:10:21;97842.84;;;24.39;82.59
16806;BME280;8520;50.102;20.010;2023-07-13T02:12:50;97840.16;;;24.41;82.70
16806;BME280;8520;50.102;20.010;2023-07-13T02:15:19;97835.34;;;24.24;83.24
16806;BME280;8520;50.102;20.010;2023-07-13T02:17:47;97835.81;;;23.86;84.44
16806;BME280;8520;50.102;20.010;2023-07-13T02:20:15;97838.91;;;23.46;87.03
16806;BME280;8520;50.102;20.010;2023-07-13T02:22:43;97834.91;;;23.66;86.10
16806;BME280;8520;50.102;20.010;2023-07-13T02:25:12;97840.81;;;23.60;86.47
16806;BME280;8520;50.102;20.010;2023-07-13T02:27:41;97834.69;;;23.72;85.97
16806;BME280;8520;50.102;20.010;2023-07-13T02:30:11;97836.00;;;23.88;84.94
16806;BME280;8520;50.102;20.010;2023-07-13T02:32:39;97838.91;;;24.24;83.31
16806;BME280;8520;50.102;20.010;2023-07-13T02:35:08;97844.59;;;24.34;82.69
16806;BME280;8520;50.102;20.010;2023-07-13T02:37:37;97847.56;;;24.36;82.07
16806;BME280;8520;50.102;20.010;2023-07-13T02:40:06;97846.53;;;24.41;81.40
16806;BME280;8520;50.102;20.010;2023-07-13T02:42:35;97855.50;;;24.47;81.58
16806;BME280;8520;50.102;20.010;2023-07-13T02:45:07;97859.66;;;24.46;81.25
16806;BME280;8520;50.102;20.010;2023-07-13T02:47:37;97857.69;;;24.39;81.18
16806;BME280;8520;50.102;20.010;2023-07-13T02:50:06;97852.41;;;24.26;80.95
16806;BME280;8520;50.102;20.010;2023-07-13T02:52:35;97866.09;;;24.30;80.68
16806;BME280;8520;50.102;20.010;2023-07-13T02:55:03;97869.97;;;23.90;82.97
16806;BME280;8520;50.102;20.010;2023-07-13T02:57:32;97879.22;;;24.17;81.92
16806;BME280;8520;50.102;20.010;2023-07-13T03:00:01;97878.16;;;23.95;82.33
16806;BME280;8520;50.102;20.010;2023-07-13T03:02:32;97876.41;;;24.17;81.34
16806;BME280;8520;50.102;20.010;2023-07-13T03:05:02;97883.88;;;23.36;84.57
16806;BME280;8520;50.102;20.010;2023-07-13T03:07:32;97871.06;;;22.43;90.63
16806;BME280;8520;50.102;20.010;2023-07-13T03:10:00;97865.56;;;23.02;87.77
16806;BME280;8520;50.102;20.010;2023-07-13T03:12:38;97875.34;;;22.76;88.93
16806;BME280;8520;50.102;20.010;2023-07-13T03:15:12;97879.78;;;21.66;95.41
16806;BME280;8520;50.102;20.010;2023-07-13T03:17:43;97881.47;;;21.77;95.16
16806;BME280;8520;50.102;20.010;2023-07-13T03:20:13;97888.59;;;21.70;95.08
16806;BME280;8520;50.102;20.010;2023-07-13T03:22:42;97887.34;;;21.33;97.12
16806;BME280;8520;50.102;20.010;2023-07-13T03:25:11;97889.41;;;21.33;97.95
16806;BME280;8520;50.102;20.010;2023-07-13T03:27:39;97887.75;;;21.22;98.35
16806;BME280;8520;50.102;20.010;2023-07-13T03:30:09;97894.25;;;21.40;98.11
16806;BME280;8520;50.102;20.010;2023-07-13T03:32:37;97889.78;;;20.99;99.47
16806;BME280;8520;50.102;20.010;2023-07-13T03:35:06;97890.00;;;21.31;98.86
16806;BME280;8520;50.102;20.010;2023-07-13T03:37:37;97895.91;;;21.58;97.36
16806;BME280;8520;50.102;20.010;2023-07-13T03:40:14;97896.09;;;22.23;93.59
16806;BME280;8520;50.102;20.010;2023-07-13T03:42:44;97892.31;;;21.88;94.56
16806;BME280;8520;50.102;20.010;2023-07-13T03:45:15;97891.75;;;22.22;93.07
16806;BME280;8520;50.102;20.010;2023-07-13T03:47:43;97900.53;;;21.79;94.53
16806;BME280;8520;50.102;20.010;2023-07-13T03:50:12;97892.66;;;21.85;95.61
16806;BME280;8520;50.102;20.010;2023-07-13T03:52:41;97878.91;;;22.77;90.47
16806;BME280;8520;50.102;20.010;2023-07-13T03:55:10;97883.81;;;23.19;88.46
16806;BME280;8520;50.102;20.010;2023-07-13T03:57:38;97870.47;;;23.44;87.14
16806;BME280;8520;50.102;20.010;2023-07-13T04:00:09;97859.81;;;23.60;85.79
16806;BME280;8520;50.102;20.010;2023-07-13T04:02:41;97871.09;;;23.87;84.13
16806;BME280;8520;50.102;20.010;2023-07-13T04:05:10;97882.56;;;24.06;83.85
16806;BME280;8520;50.102;20.010;2023-07-13T04:07:38;97877.06;;;24.26;83.55
16806;BME280;8520;50.102;20.010;2023-07-13T04:10:08;97878.69;;;24.29;82.94
16806;BME280;8520;50.102;20.010;2023-07-13T04:12:37;97879.09;;;24.42;82.44
16806;BME280;8520;50.102;20.010;2023-07-13T04:15:06;97888.78;;;24.59;81.97
16806;BME280;8520;50.102;20.010;2023-07-13T04:17:35;97892.75;;;24.46;80.75
16806;BME280;8520;50.102;20.010;2023-07-13T04:20:04;97894.75;;;24.09;82.23
16806;BME280;8520;50.102;20.010;2023-07-13T04:22:33;97893.53;;;24.29;81.97
16806;BME280;8520;50.102;20.010;2023-07-13T04:25:01;97897.09;;;24.57;81.20
16806;BME280;8520;50.102;20.010;2023-07-13T04:27:33;97901.38;;;24.75;81.02
16806;BME280;8520;50.102;20.010;2023-07-13T04:30:01;97907.84;;;24.95;80.03
16806;BME280;8520;50.102;20.010;2023-07-13T04:32:29;97917.56;;;25.11;79.44
16806;BME280;8520;50.102;20.010;2023-07-13T04:34:59;97914.34;;;25.24;79.60
16806;BME280;8520;50.102;20.010;2023-07-13T04:37:27;97920.34;;;25.38;79.44
16806;BME280;8520;50.102;20.010;2023-07-13T04:39:56;97927.94;;;25.45;78.63
16806;BME280;8520;50.102;20.010;2023-07-13T04:42:24;97923.06;;;25.55;78.20
16806;BME280;8520;50.102;20.010;2023-07-13T04:44:54;97925.00;;;25.53;78.51
16806;BME280;8520;50.102;20.010;2023-07-13T04:47:22;97935.88;;;25.20;78.01
16806;BME280;8520;50.102;20.010;2023-07-13T04:49:50;97929.16;;;25.52;77.65
16806;BME280;8520;50.102;20.010;2023-07-13T04:52:18;97925.13;;;25.45;77.31
16806;BME280;8520;50.102;20.010;2023-07-13T04:54:47;97920.25;;;25.65;76.76
16806;BME280;8520;50.102;20.010;2023-07-13T04:57:15;97918.16;;;25.85;76.96
16806;BME280;8520;50.102;20.010;2023-07-13T04:59:43;97910.56;;;25.78;76.61
16806;BME280;8520;50.102;20.010;2023-07-13T05:02:13;97904.31;;;25.60;76.87
16806;BME280;8520;50.102;20.010;2023-07-13T05:04:41;97898.50;;;25.48;77.12
16806;BME280;8520;50.102;20.010;2023-07-13T05:07:09;97892.72;;;25.65;77.14
16806;BME280;8520;50.102;20.010;2023-07-13T05:09:38;97887.94;;;25.97;76.47
16806;BME280;8520;50.102;20.010;2023-07-13T05:12:08;97891.09;;;26.20;74.36
16806;BME280;8520;50.102;20.010;2023-07-13T05:14:37;97903.06;;;25.34;77.56
16806;BME280;8520;50.102;20.010;2023-07-13T05:17:05;97903.97;;;25.36;77.76
16806;BME280;8520;50.102;20.010;2023-07-13T05:19:35;97903.00;;;26.00;76.03
16806;BME280;8520;50.102;20.010;2023-07-13T05:22:03;97913.22;;;26.34;74.21
16806;BME280;8520;50.102;20.010;2023-07-13T05:24:32;97906.78;;;26.62;72.82
16806;BME280;8520;50.102;20.010;2023-07-13T05:27:00;97915.91;;;26.41;73.10
16806;BME280;8520;50.102;20.010;2023-07-13T05:29:28;97915.13;;;26.50;72.77
16806;BME280;8520;50.102;20.010;2023-07-13T05:31:56;97907.53;;;26.72;70.58
16806;BME280;8520;50.102;20.010;2023-07-13T05:34:25;97910.44;;;25.85;73.99
16806;BME280;8520;50.102;20.010;2023-07-13T05:36:54;97901.72;;;25.35;75.68
16806;BME280;8520;50.102;20.010;2023-07-13T05:39:23;97905.88;;;25.24;75.64
16806;BME280;8520;50.102;20.010;2023-07-13T05:41:51;97905.97;;;25.92;75.40
16806;BME280;8520;50.102;20.010;2023-07-13T05:44:19;97895.38;;;26.91;71.17
16806;BME280;8520;50.102;20.010;2023-07-13T05:46:47;97892.53;;;27.22;70.37
16806;BME280;8520;50.102;20.010;2023-07-13T05:49:15;97895.03;;;27.28;70.25
16806;BME280;8520;50.102;20.010;2023-07-13T05:51:44;97887.56;;;27.32;69.68
16806;BME280;8520;50.102;20.010;2023-07-13T05:54:13;97897.44;;;27.74;68.37
16806;BME280;8520;50.102;20.010;2023-07-13T05:56:41;97889.94;;;27.79;68.81
16806;BME280;8520;50.102;20.010;2023-07-13T05:59:10;97886.31;;;27.67;69.43
16806;BME280;8520;50.102;20.010;2023-07-13T06:01:38;97885.09;;;26.86;71.15
16806;BME280;8520;50.102;20.010;2023-07-13T06:04:06;97893.72;;;27.50;68.53
16806;BME280;8520;50.102;20.010;2023-07-13T06:06:35;97890.53;;;26.63;70.90
16806;BME280;8520;50.102;20.010;2023-07-13T06:09:03;97898.25;;;26.82;70.86
16806;BME280;8520;50.102;20.010;2023-07-13T06:11:32;97890.09;;;27.38;69.13
16806;BME280;8520;50.102;20.010;2023-07-13T06:14:01;97883.06;;;27.82;67.85
16806;BME280;8520;50.102;20.010;2023-07-13T06:16:30;97886.09;;;27.74;68.72
16806;BME280;8520;50.102;20.010;2023-07-13T06:18:58;97881.91;;;27.75;69.30
16806;BME280;8520;50.102;20.010;2023-07-13T06:21:27;97885.53;;;28.09;67.81
16806;BME280;8520;50.102;20.010;2023-07-13T06:23:55;97878.28;;;28.17;67.94
16806;BME280;8520;50.102;20.010;2023-07-13T06:26:23;97879.19;;;28.43;67.37
16806;BME280;8520;50.102;20.010;2023-07-13T06:28:53;97881.88;;;28.63;66.43
16806;BME280;8520;50.102;20.010;2023-07-13T06:31:21;97878.63;;;28.57;65.98
16806;BME280;8520;50.102;20.010;2023-07-13T06:33:49;97869.50;;;29.05;65.58
16806;BME280;8520;50.102;20.010;2023-07-13T06:36:17;97878.91;;;28.96;65.18
16806;BME280;8520;50.102;20.010;2023-07-13T06:38:46;97887.44;;;29.08;64.44
16806;BME280;8520;50.102;20.010;2023-07-13T06:41:14;97891.38;;;29.26;64.00
16806;BME280;8520;50.102;20.010;2023-07-13T06:43:42;97887.28;;;29.41;63.18
16806;BME280;8520;50.102;20.010;2023-07-13T06:46:12;97883.91;;;29.56;62.76
16806;BME280;8520;50.102;20.010;2023-07-13T06:48:42;97886.13;;;29.69;61.67
16806;BME280;8520;50.102;20.010;2023-07-13T06:51:10;97887.75;;;29.98;60.25
16806;BME280;8520;50.102;20.010;2023-07-13T06:53:39;97893.28;;;30.07;59.89
16806;BME280;8520;50.102;20.010;2023-07-13T06:56:07;97892.56;;;30.32;59.21
16806;BME280;8520;50.102;20.010;2023-07-13T06:58:35;97895.75;;;30.38;59.19
16806;BME280;8520;50.102;20.010;2023-07-13T07:01:05;97903.59;;;30.01;60.00
16806;BME280;8520;50.102;20.010;2023-07-13T07:03:36;97910.72;;;30.39;58.50
16806;BME280;8520;50.102;20.010;2023-07-13T07:06:13;97910.63;;;30.37;58.25
16806;BME280;8520;50.102;20.010;2023-07-13T07:08:41;97910.81;;;30.66;57.30
16806;BME280;8520;50.102;20.010;2023-07-13T07:11:11;97916.34;;;30.76;57.26
16806;BME280;8520;50.102;20.010;2023-07-13T07:13:40;97920.19;;;30.69;57.11
16806;BME280;8520;50.102;20.010;2023-07-13T07:16:09;97908.69;;;30.67;55.97
16806;BME280;8520;50.102;20.010;2023-07-13T07:18:38;97912.63;;;29.25;57.52
16806;BME280;8520;50.102;20.010;2023-07-13T07:21:07;97908.16;;;28.87;59.42
16806;BME280;8520;50.102;20.010;2023-07-13T07:23:36;97910.72;;;29.53;58.73
16806;BME280;8520;50.102;20.010;2023-07-13T07:26:04;97906.44;;;29.17;60.32
16806;BME280;8520;50.102;20.010;2023-07-13T07:28:32;97915.97;;;27.87;63.12
16806;BME280;8520;50.102;20.010;2023-07-13T07:31:03;97898.06;;;29.30;60.87
16806;BME280;8520;50.102;20.010;2023-07-13T07:33:34;97892.28;;;29.77;59.36
16806;BME280;8520;50.102;20.010;2023-07-13T07:36:05;97891.56;;;30.02;59.31
16806;BME280;8520;50.102;20.010;2023-07-13T07:38:36;97875.06;;;29.87;57.35
16806;BME280;8520;50.102;20.010;2023-07-13T07:41:04;97865.56;;;27.85;60.99
16806;BME280;8520;50.102;20.010;2023-07-13T07:43:35;97876.44;;;29.14;58.44
16806;BME280;8520;50.102;20.010;2023-07-13T07:46:04;97876.56;;;29.16;57.82
16806;BME280;8520;50.102;20.010;2023-07-13T07:48:33;97878.31;;;27.96;61.40
16806;BME280;8520;50.102;20.010;2023-07-13T07:51:01;97878.25;;;29.44;58.14
16806;BME280;8520;50.102;20.010;2023-07-13T07:53:31;97866.66;;;29.05;58.71
16806;BME280;8520;50.102;20.010;2023-07-13T07:56:00;97866.53;;;29.38;58.32
16806;BME280;8520;50.102;20.010;2023-07-13T07:58:48;97870.94;;;30.27;56.42
16806;BME280;8520;50.102;20.010;2023-07-13T08:01:19;97867.78;;;30.74;55.39
16806;BME280;8520;50.102;20.010;2023-07-13T08:03:50;97877.09;;;29.61;54.87
16806;BME280;8520;50.102;20.010;2023-07-13T08:06:21;97872.72;;;30.21;54.60
16806;BME280;8520;50.102;20.010;2023-07-13T08:08:54;97876.88;;;28.07;58.27
16806;BME280;8520;50.102;20.010;2023-07-13T08:11:22;97878.97;;;29.45;56.27
16806;BME280;8520;50.102;20.010;2023-07-13T08:13:53;97875.94;;;30.40;54.06
16806;BME280;8520;50.102;20.010;2023-07-13T08:16:22;97868.53;;;30.35;54.21
16806;BME280;8520;50.102;20.010;2023-07-13T08:18:51;97875.53;;;30.99;52.46
16806;BME280;8520;50.102;20.010;2023-07-13T08:21:19;97881.44;;;31.03;52.55
16806;BME280;8520;50.102;20.010;2023-07-13T08:23:48;97872.59;;;31.38;51.03
16806;BME280;8520;50.102;20.010;2023-07-13T08:26:17;97879.69;;;31.80;49.92
16806;BME280;8520;50.102;20.010;2023-07-13T08:28:46;97876.28;;;31.41;49.96
16806;BME280;8520;50.102;20.010;2023-07-13T08:31:14;97878.72;;;31.33;50.08
16806;BME280;8520;50.102;20.010;2023-07-13T08:33:42;97890.03;;;31.88;50.81
16806;BME280;8520;50.102;20.010;2023-07-13T08:36:11;97882.94;;;32.02;49.19
16806;BME280;8520;50.102;20.010;2023-07-13T08:38:39;97887.28;;;32.19;48.64
16806;BME280;8520;50.102;20.010;2023-07-13T08:41:12;97880.38;;;32.38;47.85
16806;BME280;8520;50.102;20.010;2023-07-13T08:43:45;97885.75;;;32.77;47.15
16806;BME280;8520;50.102;20.010;2023-07-13T08:46:19;97877.13;;;33.25;46.78
16806;BME280;8520;50.102;20.010;2023-07-13T08:48:55;97881.47;;;33.26;47.82
16806;BME280;8520;50.102;20.010;2023-07-13T08:51:33;97878.09;;;32.98;47.49
16806;BME280;8520;50.102;20.010;2023-07-13T08:54:07;97874.13;;;32.89;47.97
16806;BME280;8520;50.102;20.010;2023-07-13T08:56:38;97878.38;;;33.37;47.44
16806;BME280;8520;50.102;20.010;2023-07-13T08:59:11;97873.28;;;33.18;45.04
16806;BME280;8520;50.102;20.010;2023-07-13T09:02:00;97869.91;;;32.90;46.27
16806;BME280;8520;50.102;20.010;2023-07-13T09:04:35;97857.53;;;32.85;46.73
16806;BME280;8520;50.102;20.010;2023-07-13T09:07:14;97859.38;;;32.79;47.42
16806;BME280;8520;50.102;20.010;2023-07-13T09:10:00;97852.88;;;33.41;46.62
16806;BME280;8520;50.102;20.010;2023-07-13T09:12:35;97844.41;;;33.61;45.97
16806;BME280;8520;50.102;20.010;2023-07-13T09:15:21;97842.44;;;33.48;45.33
16806;BME280;8520;50.102;20.010;2023-07-13T09:17:55;97848.44;;;33.38;45.61
16806;BME280;8520;50.102;20.010;2023-07-13T09:20:29;97844.91;;;33.06;46.65
16806;BME280;8520;50.102;20.010;2023-07-13T09:23:01;97849.59;;;32.84;47.22
16806;BME280;8520;50.102;20.010;2023-07-13T09:25:33;97847.66;;;32.41;46.80
16806;BME280;8520;50.102;20.010;2023-07-13T09:28:09;97849.13;;;31.26;48.74
16806;BME280;8520;50.102;20.010;2023-07-13T09:30:46;97852.41;;;30.14;51.34
16806;BME280;8520;50.102;20.010;2023-07-13T09:33:18;97844.94;;;29.21;53.09
16806;BME280;8520;50.102;20.010;2023-07-13T09:35:46;97856.66;;;28.69;54.35
16806;BME280;8520;50.102;20.010;2023-07-13T09:38:16;97846.94;;;28.84;54.37
16806;BME280;8520;50.102;20.010;2023-07-13T09:41:04;97843.56;;;29.71;52.02
16806;BME280;8520;50.102;20.010;2023-07-13T09:44:09;97845.69;;;29.96;51.33
16806;BME280;8520;50.102;20.010;2023-07-13T09:46:44;97846.06;;;30.28;50.81
16806;BME280;8520;50.102;20.010;2023-07-13T09:49:13;97840.53;;;30.71;50.13
16806;BME280;8520;50.102;20.010;2023-07-13T09:51:41;97845.41;;;30.55;50.36
16806;BME280;8520;50.102;20.010;2023-07-13T09:54:20;97841.47;;;30.48;51.52
16806;BME280;8520;50.102;20.010;2023-07-13T09:56:53;97847.25;;;30.11;50.89
16806;BME280;8520;50.102;20.010;2023-07-13T09:59:24;97849.97;;;30.74;50.36
16806;BME280;8520;50.102;20.010;2023-07-13T10:01:56;97864.25;;;30.62;51.47
16806;BME280;8520;50.102;20.010;2023-07-13T10:04:29;97854.34;;;30.63;51.14
16806;BME280;8520;50.102;20.010;2023-07-13T10:07:05;97854.88;;;30.20;51.15
16806;BME280;8520;50.102;20.010;2023-07-13T10:09:55;97856.38;;;29.35;53.75
16806;BME280;8520;50.102;20.010;2023-07-13T10:12:24;97864.31;;;28.90;54.16
16806;BME280;8520;50.102;20.010;2023-07-13T10:14:54;97860.16;;;28.34;56.10
16806;BME280;8520;50.102;20.010;2023-07-13T10:17:39;97854.91;;;28.52;55.04
16806;BME280;8520;50.102;20.010;2023-07-13T10:20:08;97860.50;;;28.97;54.37
16806;BME280;8520;50.102;20.010;2023-07-13T10:22:45;97866.56;;;29.15;55.06
16806;BME280;8520;50.102;20.010;2023-07-13T10:25:19;97863.81;;;29.40;53.64
16806;BME280;8520;50.102;20.010;2023-07-13T10:27:50;97866.66;;;29.40;55.12
16806;BME280;8520;50.102;20.010;2023-07-13T10:30:21;97866.88;;;29.56;55.74
16806;BME280;8520;50.102;20.010;2023-07-13T10:32:58;97862.41;;;29.53;56.46
16806;BME280;8520;50.102;20.010;2023-07-13T10:35:29;97873.03;;;29.64;56.50
16806;BME280;8520;50.102;20.010;2023-07-13T10:38:01;97872.53;;;29.56;55.92
16806;BME280;8520;50.102;20.010;2023-07-13T10:40:35;97882.47;;;28.96;57.24
16806;BME280;8520;50.102;20.010;2023-07-13T10:43:10;97885.25;;;28.38;59.86
16806;BME280;8520;50.102;20.010;2023-07-13T10:45:40;97884.88;;;27.03;61.49
16806;BME280;8520;50.102;20.010;2023-07-13T10:48:12;97897.22;;;27.39;62.91
16806;BME280;8520;50.102;20.010;2023-07-13T10:50:45;97895.38;;;26.31;68.20
16806;BME280;8520;50.102;20.010;2023-07-13T10:53:19;97900.06;;;26.07;69.33
16806;BME280;8520;50.102;20.010;2023-07-13T10:55:57;97893.38;;;27.03;66.23
16806;BME280;8520;50.102;20.010;2023-07-13T10:58:32;97895.09;;;26.37;68.61
16806;BME280;8520;50.102;20.010;2023-07-13T11:01:07;97896.47;;;26.76;68.18
16806;BME280;8520;50.102;20.010;2023-07-13T11:03:48;97904.50;;;26.20;70.60
16806;BME280;8520;50.102;20.010;2023-07-13T11:06:31;97905.50;;;26.44;72.25
16806;BME280;8520;50.102;20.010;2023-07-13T11:09:18;97904.00;;;26.53;73.19
16806;BME280;8520;50.102;20.010;2023-07-13T11:11:47;97906.03;;;26.52;74.79
16806;BME280;8520;50.102;20.010;2023-07-13T11:14:31;97914.72;;;25.67;78.83
16806;BME280;8520;50.102;20.010;2023-07-13T11:17:36;97920.84;;;25.73;79.98
16806;BME280;8520;50.102;20.010;2023-07-13T11:20:30;97928.75;;;24.82;84.20
16806;BME280;8520;50.102;20.010;2023-07-13T11:23:19;97926.66;;;24.83;84.08
16806;BME280;8520;50.102;20.010;2023-07-13T11:25:48;97921.44;;;24.52;85.84
16806;BME280;8520;50.102;20.010;2023-07-13T11:28:21;97927.97;;;24.72;85.41
16806;BME280;8520;50.102;20.010;2023-07-13T11:31:10;97932.34;;;24.38;86.24
16806;BME280;8520;50.102;20.010;2023-07-13T11:33:53;97938.38;;;24.52;85.41
16806;BME280;8520;50.102;20.010;2023-07-13T11:36:24;97937.78;;;24.53;85.75
16806;BME280;8520;50.102;20.010;2023-07-13T11:39:01;97989.88;;;21.65;100.00
16806;BME280;8520;50.102;20.010;2023-07-13T11:41:32;97998.13;;;19.36;100.00
16806;BME280;8520;50.102;20.010;2023-07-13T11:44:07;98017.28;;;18.91;100.00
16806;BME280;8520;50.102;20.010;2023-07-13T11:46:38;98028.97;;;18.68;100.00
16806;BME280;8520;50.102;20.010;2023-07-13T11:49:07;98018.19;;;17.85;100.00
16806;BME280;8520;50.102;20.010;2023-07-13T11:51:36;98090.78;;;18.38;100.00
16806;BME280;8520;50.102;20.010;2023-07-13T11:54:19;98077.66;;;17.67;100.00
16806;BME280;8520;50.102;20.010;2023-07-13T11:56:49;98073.84;;;17.64;100.00
16806;BME280;8520;50.102;20.010;2023-07-13T11:59:18;98039.03;;;17.39;100.00
16806;BME280;8520;50.102;20.010;2023-07-13T12:01:51;97987.53;;;16.76;100.00
16806;BME280;8520;50.102;20.010;2023-07-13T12:04:23;98081.00;;;16.96;100.00
16806;BME280;8520;50.102;20.010;2023-07-13T12:06:58;98056.28;;;17.37;100.00
16806;BME280;8520;50.102;20.010;2023-07-13T12:09:33;98086.28;;;17.95;100.00
16806;BME280;8520;50.102;20.010;2023-07-13T12:12:08;98096.31;;;17.72;100.00
16806;BME280;8520;50.102;20.010;2023-07-13T12:14:38;98094.31;;;17.22;100.00
16806;BME280;8520;50.102;20.010;2023-07-13T12:17:09;98046.09;;;17.08;100.00
16806;BME280;8520;50.102;20.010;2023-07-13T12:19:40;98061.69;;;17.16;100.00
16806;BME280;8520;50.102;20.010;2023-07-13T12:22:12;98060.41;;;16.99;100.00
16806;BME280;8520;50.102;20.010;2023-07-13T12:24:41;98079.97;;;17.31;100.00
16806;BME280;8520;50.102;20.010;2023-07-13T12:27:20;98091.56;;;17.35;100.00
16806;BME280;8520;50.102;20.010;2023-07-13T12:29:51;98087.59;;;17.30;100.00
16806;BME280;8520;50.102;20.010;2023-07-13T12:32:20;98068.31;;;17.13;100.00
16806;BME280;8520;50.102;20.010;2023-07-13T12:34:54;98082.25;;;17.45;100.00
16806;BME280;8520;50.102;20.010;2023-07-13T12:37:24;98092.66;;;17.45;100.00
16806;BME280;8520;50.102;20.010;2023-07-13T12:39:53;98090.53;;;17.70;100.00
16806;BME280;8520;50.102;20.010;2023-07-13T12:42:23;98079.19;;;17.94;100.00
16806;BME280;8520;50.102;20.010;2023-07-13T12:44:57;98070.50;;;18.11;100.00
16806;BME280;8520;50.102;20.010;2023-07-13T12:47:27;98070.16;;;18.41;100.00
16806;BME280;8520;50.102;20.010;2023-07-13T12:49:56;98070.78;;;19.08;100.00
16806;BME280;8520;50.102;20.010;2023-07-13T12:52:31;98073.25;;;19.11;100.00
16806;BME280;8520;50.102;20.010;2023-07-13T12:55:05;98065.63;;;19.33;100.00
16806;BME280;8520;50.102;20.010;2023-07-13T12:57:45;98066.28;;;19.60;98.03
16806;BME280;8520;50.102;20.010;2023-07-13T13:00:23;98057.16;;;20.16;97.17
16806;BME280;8520;50.102;20.010;2023-07-13T13:02:54;98059.03;;;19.93;97.37
16806;BME280;8520;50.102;20.010;2023-07-13T13:05:44;98062.88;;;20.03;95.68
16806;BME280;8520;50.102;20.010;2023-07-13T13:08:14;98063.06;;;20.34;96.07
16806;BME280;8520;50.102;20.010;2023-07-13T13:10:42;98057.59;;;20.64;94.57
16806;BME280;8520;50.102;20.010;2023-07-13T13:13:12;98056.06;;;20.55;95.72
16806;BME280;8520;50.102;20.010;2023-07-13T13:15:41;98064.44;;;20.48;95.06
16806;BME280;8520;50.102;20.010;2023-07-13T13:18:15;98062.50;;;20.71;94.29
16806;BME280;8520;50.102;20.010;2023-07-13T13:20:44;98075.44;;;20.82;94.53